Home Team Position History
You can show your support by sponsoring this page for $50.  
Your ad/message will appear in this space for one year.  
Thank you for your support!       Team History Index New York Yankees
         
          Second Base
             
Pos St All- Other 2nd Base Fielding Statistics Pos St Batting Statistics as Second Baseman Win Shares Pos St
Year Rank Rank Name HOF MVP Star Rookie GG SS Team Stdg Bats Age Pos Games PO Assts Err DP F Pct. Year Rank Rank Name At Bats Hits 2B 3B HR Runs RBI BB IBB SO HP SH SF SB CS GDP BA OBA SA OPS RC B WS F WS T WS BWS/G FWS/G TWS/G Adj WSQ Year Rank Rank Name
1901 2 2 Jimmy Williams     BAL 5 R 24   130 339 412 52 47 .935   1901 2 2 Jimmy Williams 501 159 26 21 7 113 96 56 2 9 21 .317 .388 .495 .883 109   17.2 4.7 21.9 .132 .036 .168 22.18 1901 2 2 Jimmy Williams
         
1902 2 2 Jimmy Williams     BAL 8 R 25   104 248 332 34 46 .945   1902 2 2 Jimmy Williams 418 131 23 18 7 70 70 30 1 8 12 .313 .361 .505 .866 78   11.7 3.7 15.4 .113 .036 .148 16.80 1902 2 2 Jimmy Williams
1902 12 Harry Howell     BAL 8 R 25   26 51 75 7 5 .947   1902 12 Harry Howell 93 25 4 3 1 11 11 5 1 2 2 .269 .313 .409 .722 12   1.2 0.6 1.8 .046 .023 .069 1.35 1902 12 Harry Howell
         
1903 2 2 Jimmy Williams     NY 4 R 26   132 266 438 32 59 .957   1903 2 2 Jimmy Williams 502 134 30 12 3 60 82 39 5 8 9 .267 .326 .392 .718 76   16.4 5.7 22.1 .124 .043 .167 24.50 1903 2 2 Jimmy Williams
         
1904 3 3 Jimmy Williams     NY 2 R 27   146 315 465 40 52 .951   1904 3 3 Jimmy Williams 559 147 31 7 2 62 74 38 4 11 14 .263 .314 .354 .668 66   13.1 6.7 19.8 .090 .046 .136 19.17 1904 3 3 Jimmy Williams
         
1905 5 5 Jimmy Williams     NY 6 R 28   129 335 332 25 51 .964   1905 5 5 Jimmy Williams 470 107 20 8 6 54 62 50 3 10 14 .228 .306 .343 .649 60   11.9 4.2 16.1 .092 .033 .125 15.59 1905 5 5 Jimmy Williams
         
1906 5 5 Jimmy Williams     NY 2 R 29   139 326 412 32 34 .958   1906 5 5 Jimmy Williams 501 139 25 7 3 62 77 44 5 21 8 .277 .342 .373 .715 73   13.4 6.1 19.5 .096 .044 .140 18.87 1906 5 5 Jimmy Williams
         
1907 2 2 Jimmy Williams     NY 5 R 30   139 357 393 26 45 .966   1907 2 2 Jimmy Williams 504 136 17 11 2 53 63 35 1 11 14 .270 .319 .359 .678 71   15.2 3.5 18.7 .109 .025 .135 18.57 1907 2 2 Jimmy Williams
         
1908 5 5 Harry Niles     NY 8 R 27   85 166 220 30 15 .928   1908 5 5 Harry Niles 334 83 13 5 4 40 22 23 4 9 17 .249 .305 .353 .658 39   10.5 0.8 11.3 .124 .009 .133 10.75 1908 5 5 Harry Niles
1908 10 Frank LaPorte     NY 8 R 28   26 51 77 9 10 .934   1908 10 Frank LaPorte 101 26 2 3 1 5 11 6 0 3 2 .257 .299 .366 .665 11   2.4 0.4 2.8 .092 .015 .108 2.40 1908 10 Frank LaPorte
1908 17 Earle Gardner   R   NY 8 R 24   20 49 59 6 13 .947   1908 17 Earle Gardner 75 16 2 0 0 7 4 1 1 3 0 .213 .234 .240 .474 4   - 0.3 0.3 .000 .015 .015 0.10 1908 17 Earle Gardner
         
1909 3 3 Frank LaPorte     NY 5 R 29   83 142 208 23 30 .938   1909 3 3 Frank LaPorte 309 92 19 3 0 35 31 18 2 8 5 .298 .340 .379 .719 45   11.2 0.3 11.5 .135 .004 .139 10.65 1909 3 3 Frank LaPorte
1909 8 Earle Gardner   R   NY 5 R 25   22 35 51 5 3 .945   1909 8 Earle Gardner 85 28 4 0 0 12 15 3 0 1 4 .329 .352 .376 .728 13   3.4 0.1 3.5 .155 .005 .159 3.47 1909 8 Earle Gardner
         
1910 5 Frank LaPorte     NY 2 R 30   79 127 220 15 21 .959   1910 5 Frank LaPorte 292 77 9 4 1 29 45 22 2 13 11 .264 .320 .332 .652 36   6.7 2.8 9.5 .085 .035 .120 7.79 1910 5 Frank LaPorte
1910 8 7 Earle Gardner     NY 2 R 26   70 169 199 25 36 .936   1910 8 7 Earle Gardner 271 66 4 2 1 36 24 21 2 9 9 .244 .303 .284 .587 27   3.8 3.2 7.0 .054 .046 .100 5.24 1910 8 7 Earle Gardner
         
1911 10 7 Earle Gardner     NY 6 R 27   101 181 290 20 44 .959   1911 10 7 Earle Gardner 357 94 13 2 0 36 39 20 5 13 14 .263 .312 .311 .623 36   2.5 3.3 5.8 .025 .033 .057 3.57 1911 10 7 Earle Gardner
1911 14 John Knight T14     NY 6 R 25 1B,SS   21 54 80 17 8 .887   1911 14 John Knight 75 20 3 1 0 11 10 7 2 3 3 .267 .345 .333 .678 10   1.0 0.7 1.7 .048 .033 .081 1.24 1911 14 John Knight
         
1912 10 8 Hack Simmons   R   NY 8 R 27   88 162 207 21 23 .946   1912 10 8 Hack Simmons 336 80 14 2 0 38 34 28 6 6 16 .238 .308 .292 .600 34   2.5 1.2 3.7 .028 .014 .042 1.97 1912 10 8 Hack Simmons
1912 11 Earle Gardner     NY 8 R 28   43 93 107 17 11 .922   1912 11 Earle Gardner 160 45 3 1 0 14 26 5 0 5 11 .281 .303 .313 .616 16   1.5 0.5 2.0 .035 .012 .047 1.12 1912 11 Earle Gardner
         
1913 6 6 Roy Hartzell     NY 7 L 31 3B   81 203 234 27 29 .942   1913 6 6 Roy Hartzell 290 75 11 1 0 35 22 40 24 2 9 15 .259 .352 .303 .655 37   5.9 1.9 7.8 .073 .023 .096 6.18 1913 6 6 Roy Hartzell
1913 15 Bill McKechnie Other     NY 7 B 26   28 57 76 7 12 .950   1913 15 Bill McKechnie 85 11 0 0 0 5 6 6 13 1 2 2 .129 .196 .129 .325 1   - 0.5 0.5 .000 .018 .018 0.17 1913 15 Bill McKechnie
1913 14 John Knight     NY 7 R 27 1B   21 50 70 6 6 .952   1913 14 John Knight 74 17 3 0 0 7 7 7 8 1 2 2 .230 .305 .270 .575 7   0.7 0.7 1.4 .033 .033 .067 0.92 1913 14 John Knight
         
1914 10 8 Luke Boone   R   NY T6 R 24   90 238 294 22 32 .960   1914 10 8 Luke Boone 336 75 7 2 0 31 19 28 37 2 9 9 16 .223 .287 .256 .543 24   1.1 3.8 4.9 .012 .042 .054 2.94 1914 10 8 Luke Boone
1914 9 Frank Truesdale     NY T6 B 30   67 121 185 17 19 .947   1914 9 Frank Truesdale 205 43 4 0 0 21 12 37 33 3 4 10 10 .210 .339 .229 .568 21   2.9 2.0 4.9 .043 .030 .073 3.41 1914 9 Frank Truesdale
         
1915 10 7 Luke Boone     NY 5 R 25   115 249 392 23 59 .965   1915 10 7 Luke Boone 381 78 11 2 4 39 38 36 47 7 12 12 15 .205 .285 .276 .561 32   1.9 5.1 7.0 .017 .044 .061 4.53 1915 10 7 Luke Boone
1915 8 Paddy Baumann     NY 5 R 29   43 103 116 5 17 .978   1915 8 Paddy Baumann 152 44 9 1 1 21 19 19 22 2 7 6 7 .289 .376 .382 .758 26   4.9 1.7 6.6 .114 .040 .153 6.78 1915 8 Paddy Baumann
         
1916 9 7 Joe Gedeon   R   NY 4 R 22   122 235 341 27 55 .955   1916 9 7 Joe Gedeon 435 92 14 4 0 50 27 40 61 3 13 14 .211 .282 .262 .544 33   2.5 2.9 5.4 .020 .024 .044 3.20 1916 9 7 Joe Gedeon
1916 12 Charlie Mullen     NY 4 R 27   20 45 38 5 5 .943   1916 12 Charlie Mullen 68 18 4 0 0 5 8 4 6 0 3 3 .265 .306 .324 .630 7   1.3 0.4 1.7 .065 .020 .085 1.40 1916 12 Charlie Mullen
         
1917 9 8 Fritz Maisel     NY 6 R 27   100 219 280 17 37 .967   1917 9 8 Fritz Maisel 378 75 4 4 0 43 19 34 17 2 22 27 .198 .268 .230 .498 23   - 3.9 3.9 .000 .039 .039 2.29 1917 9 8 Fritz Maisel
1917 10 Joe Gedeon     NY 6 R 23   31 83 86 3 12 .983   1917 10 Joe Gedeon 117 28 7 0 0 15 8 7 13 1 6 4 .239 .288 .299 .587 11   1.0 1.5 2.5 .032 .048 .081 2.11 1917 10 Joe Gedeon
         
Pos St All- Other 2nd Base Fielding Statistics Pos St Batting Statistics as Second Baseman Win Shares Pos St
Year Rank Rank Name HOF MVP Star Rookie GG SS Team Stdg Bats Age Pos Games PO Assts Err DP F Pct. Year Rank Rank Name At Bats Hits 2B 3B HR Runs RBI BB IBB SO HP SH SF SB CS GDP BA OBA SA OPS RC B WS F WS T WS BWS/G FWS/G TWS/G Adj WSQ Year Rank Rank Name
1918 2 2 Del Pratt     NY 4 R 30   126 340 386 23 82 .969   1918 2 2 Del Pratt 477 131 19 7 2 65 55 35 26 2 23 12 .275 .327 .356 .683 60   12.0 5.0 17.0 .095 .040 .135 18.67 1918 2 2 Del Pratt
         
1919 2 2 Del Pratt     NY 3 R 31   140 315 491 26 64 .969   1919 2 2 Del Pratt 527 154 27 7 4 69 56 36 24 4 16 22 .292 .342 .393 .735 73   13.5 7.0 20.5 .096 .050 .146 22.94 1919 2 2 Del Pratt
         
1920 2 2 Del Pratt     NY 3 R 32   154 354 515 26 77 .971   1920 2 2 Del Pratt 574 180 37 8 4 84 97 50 24 3 27 12 10 .314 .372 .427 .799 98   16.9 8.1 25.0 .110 .053 .162 27.57 1920 2 2 Del Pratt
         
1921 4 4 Aaron Ward     NY 1 R 24 3B   124 260 412 27 35 .961   1921 4 4 Aaron Ward 439 134 24 8 4 61 59 33 54 6 23 5 6 .305 .362 .424 .786 70   9.8 6.1 15.9 .079 .049 .128 16.53 1921 4 4 Aaron Ward
         
1922 5 5 Aaron Ward     NY 1 R 25   152 358 489 23 73 .974   1922 5 5 Aaron Ward 551 147 19 5 7 68 67 44 63 6 32 6 4 .267 .328 .358 .686 66   7.8 6.5 14.3 .051 .043 .094 13.15 1922 5 5 Aaron Ward
         
1923 2 2 Aaron Ward     NY 1 R 26   152 387 493 18 86 .980   1923 2 2 Aaron Ward 567 161 26 11 10 79 82 56 65 3 14 8 8 .284 .351 .422 .773 85   13.5 8.5 22.0 .089 .056 .145 24.10 1923 2 2 Aaron Ward
         
1924 5 4 Aaron Ward     NY 2 R 27   120 303 385 19 60 .973   1924 5 4 Aaron Ward 397 100 13 10 8 42 65 40 45 2 23 1 4 .252 .323 .395 .718 53   5.9 5.8 11.7 .049 .048 .098 10.61 1924 5 4 Aaron Ward
1924 10 Ernie Johnson     NY 2 L 36   27 54 74 6 12 .955   1924 10 Ernie Johnson 85 30 3 6 2 17 9 8 5 1 2 1 4 .353 .415 .600 1.015 18   3.4 0.8 4.2 .126 .030 .156 4.80 1924 10 Ernie Johnson
1924 15 Mike McNally     NY 2 R 31   25 29 38 1 7 .985   1924 15 Mike McNally 39 10 0 0 0 6 1 4 3 0 2 1 1 .256 .326 .256 .582 3   0.1 0.7 0.8 .004 .028 .032 0.41 1924 15 Mike McNally
         
1925 8 6 Aaron Ward     NY 7 R 28   113 246 317 20 57 .966   1925 8 6 Aaron Ward 403 99 20 3 4 38 35 45 45 3 8 1 4 .246 .326 .340 .666 44   3.2 3.7 6.9 .028 .033 .061 4.94 1925 8 6 Aaron Ward
1925 13 Ernie Johnson     NY 7 L 37 SS   34 58 90 7 17 .955   1925 13 Ernie Johnson 90 26 3 1 3 16 9 4 5 0 2 3 2 .289 .319 .444 .763 11   1.1 0.6 1.7 .032 .018 .050 1.10 1925 13 Ernie Johnson
1925 15 Howard Shanks     NY 7 R 34 3B   21 32 58 2 11 .978   1925 15 Howard Shanks 64 16 1 0 0 6 7 8 6 0 4 0 0 .250 .333 .266 .599 7   0.6 0.5 1.1 .029 .024 .052 0.73 1925 15 Howard Shanks
         
1926 2 2 Tony Lazzeri Vet T10   R   NY 1 R 22   145 288 448 30 72 .961   1926 2 2 Tony Lazzeri 566 156 27 13 17 76 109 52 92 2 19 15 7 .276 .339 .459 .798 87   14.5 3.2 17.7 .100 .022 .122 18.56 1926 2 2 Tony Lazzeri
         
1927 2 2 Tony Lazzeri Vet 11     NY 1 R 23 SS   113 213 398 18 60 .971   1927 2 2 Tony Lazzeri 403 124 20 6 13 65 72 49 58 0 15 16 10 .308 .383 .484 .867 71   12.2 4.2 16.4 .108 .037 .145 18.22 1927 2 2 Tony Lazzeri
1927 9 Ray Morehart     NY 1 L 27   53 101 175 16 27 .945   1927 9 Ray Morehart 195 50 7 2 1 45 20 29 18 0 6 4 4 .256 .353 .328 .681 23   2.7 1.9 4.6 .051 .036 .087 3.95 1927 9 Ray Morehart
         
1928 2 2 Tony Lazzeri Vet T3     NY 1 R 24   110 236 331 26 56 .956   1928 2 2 Tony Lazzeri 404 134 30 11 10 62 82 43 50 1 15 15 5 .332 .397 .535 .932 84   18.9 3.3 22.2 .172 .030 .202 28.20 1928 2 2 Tony Lazzeri
1928 8 Leo Durocher Other   R   NY 1 R 22 SS   66 112 178 16 31 .948   1928 8 Leo Durocher 206 56 6 4 0 32 22 15 36 2 5 1 3 .272 .327 .340 .667 23   2.9 2.0 4.9 .044 .030 .074 3.78 1928 8 Leo Durocher
         
1929 1 1 Tony Lazzeri Vet     NY 2 R 25   147 368 467 21 101 .975   1929 1 1 Tony Lazzeri 545 193 37 11 18 101 106 68 45 4 18 9 10 .354 .429 .561 .990 125   25.5 4.2 29.7 .173 .029 .202 36.46 1929 1 1 Tony Lazzeri
         
1930 5 5 Tony Lazzeri Vet     NY 3 R 26 3B   77 184 245 13 39 .971   1930 5 5 Tony Lazzeri 299 91 18 8 5 57 63 31 32 2 8 2 2 .304 .373 .468 .841 54   8.2 1.9 10.1 .106 .025 .131 10.08 1930 5 5 Tony Lazzeri
1930 8 Ben Chapman   R   NY 3 R 21 3B   45 132 146 18 36 .939   1930 8 Ben Chapman 170 54 10 3 3 24 27 14 19 0 2 5 2 .318 .370 .465 .835 30   4.9 0.9 5.8 .109 .020 .129 5.74 1930 8 Ben Chapman
1930 7 Jimmie Reese   R   NY 3 L 28   48 86 99 5 26 .974   1930 7 Jimmie Reese 170 59 13 2 3 40 16 10 7 0 4 1 1 .347 .383 .500 .883 32   5.3 0.7 6.0 .110 .015 .125 5.85 1930 7 Jimmie Reese
         
1931 4 4 Tony Lazzeri Vet     NY 2 R 27 3B   90 216 288 12 52 .977   1931 4 4 Tony Lazzeri 338 90 19 5 6 47 58 55 56 1 3 13 6 .266 .371 .405 .776 57   7.7 2.9 10.6 .086 .032 .118 10.54 1931 4 4 Tony Lazzeri
1931 10 Jimmie Reese     NY 2 L 29   61 173 168 10 44 .972   1931 10 Jimmie Reese 245 59 10 2 3 41 26 17 10 1 2 2 3 .241 .293 .335 .628 25   1.6 2.1 3.7 .026 .034 .061 2.63 1931 10 Jimmie Reese
         
1932 1 1 Tony Lazzeri Vet 8     NY 1 R 28   133 362 405 17 70 .978   1932 1 1 Tony Lazzeri 492 147 27 15 14 76 109 79 62 2 7 11 11 .299 .398 .500 .898 102   19.6 6.6 26.2 .147 .050 .197 32.67 1932 1 1 Tony Lazzeri
         
1933 2 2 Tony Lazzeri Vet 14 a   NY 2 R 29   138 338 407 25 71 .968   1933 2 2 Tony Lazzeri 523 154 22 12 18 94 104 73 62 2 4 15 7 .294 .383 .486 .869 103   20.7 3.1 23.8 .150 .022 .172 26.58 1933 2 2 Tony Lazzeri
1933 14 Doc Farrell   NY 2 R 31 SS   20 32 41 5 4 .936   1933 14 Doc Farrell 44 12 0 0 0 8 3 8 3 0 1 0 0 .273 .385 .273 .658 6   0.8 0.3 1.1 .040 .015 .055 0.69 1933 14 Doc Farrell
       
1934 4 4 Tony Lazzeri Vet   NY 2 R 30 3B   92 218 265 12 52 .976   1934 4 4 Tony Lazzeri 330 88 18 5 11 44 51 54 48 0 4 8 1 .267 .370 .452 .822 57   9.6 3.5 13.1 .104 .038 .142 13.22 1934 4 4 Tony Lazzeri
1934 8 Don Heffner R   NY 2 R 23   68 158 179 10 46 .971   1934 8 Don Heffner 241 63 8 3 0 29 25 25 18 0 4 1 1 .261 .331 .320 .651 26   2.8 2.5 5.3 .041 .037 .078 3.95 1934 8 Don Heffner
       
Pos St All- Other 2nd Base Fielding Statistics Pos St Batting Statistics as Second Baseman Win Shares Pos St
Year Rank Rank Name HOF MVP Star Rookie GG SS Team Stdg Bats Age Pos Games PO Assts Err DP F Pct. Year Rank Rank Name At Bats Hits 2B 3B HR Runs RBI BB IBB SO HP SH SF SB CS GDP BA OBA SA OPS RC B WS F WS T WS BWS/G FWS/G TWS/G Adj WSQ Year Rank Rank Name
1935 3 3 Tony Lazzeri Vet   NY 2 R 31   118 285 329 19 72 .970   1935 3 3 Tony Lazzeri 443 121 17 6 12 67 77 59 70 3 1 10 5 .273 .362 .420 .782 71   11.2 3.0 14.2 .095 .025 .120 13.24 1935 3 3 Tony Lazzeri
1935 11 Jack Saltzgaver   NY 2 L 32   25 40 64 7 8 .937   1935 11 Jack Saltzgaver 76 20 3 0 2 9 9 12 6 1 1 0 1 .263 .371 .382 .753 11   1.5 0.5 2.0 .060 .020 .080 1.52 1935 11 Jack Saltzgaver
       
1936 2 2 Tony Lazzeri Vet   NY 1 R 32   148 346 414 25 88 .968   1936 2 2 Tony Lazzeri 530 152 29 6 14 81 108 96 64 1 3 8 5 .287 .397 .443 .840 99   14.3 3.6 17.9 .097 .024 .121 17.49 1936 2 2 Tony Lazzeri
       
1937 3 3 Tony Lazzeri Vet   NY 1 R 33   125 251 382 22 64 .966   1937 3 3 Tony Lazzeri 446 109 21 3 14 56 70 71 76 0 1 7 1 .244 .348 .399 .747 68   9.0 3.8 12.8 .072 .030 .102 12.11 1937 3 3 Tony Lazzeri
1937 13 Don Heffner   NY 1 R 26   38 107 94 4 28 .980   1937 13 Don Heffner 136 34 4 3 0 16 14 13 13 0 1 1 3 .250 .315 .324 .639 14   1.0 1.1 2.1 .026 .029 .055 1.46 1937 13 Don Heffner
       
1938 3 3 Joe Gordon Vet 12 R   NY 1 R 22   126 290 450 31 98 .960   1938 3 3 Joe Gordon 458 117 24 7 25 83 97 56 72 3 3 11 3 .255 .340 .502 .842 83   12.1 6.4 18.5 .096 .051 .147 19.74 1938 3 3 Joe Gordon
1938 11 Bill Knickerbocker   NY 1 R 26   34 78 86 3 23 .982   1938 11 Bill Knickerbocker 118 29 7 3 1 14 19 10 9 0 4 0 0 .246 .305 .381 .686 16   1.6 1.3 2.9 .047 .038 .085 2.36 1938 11 Bill Knickerbocker
       
1939 1 1 Joe Gordon Vet 9 A   NY 1 R 23   151 370 461 28 116 .967   1939 1 1 Joe Gordon 567 161 32 5 28 92 111 75 57 2 4 11 10 15 .284 .370 .506 .876 108   18.0 6.9 24.9 .119 .046 .165 29.14 1939 1 1 Joe Gordon
       
1940 1 1 Joe Gordon Vet T23 A   NY 3 R 24   155 374 505 23 116 .975   1940 1 1 Joe Gordon 616 173 32 10 30 112 103 52 57 3 6 18 8 12 .281 .340 .511 .851 111   18.6 7.4 26.0 .120 .048 .168 30.42 1940 1 1 Joe Gordon
       
1941 1 1 Joe Gordon Vet 7 a   NY 1 R 25 1B   131 332 397 32 109 .958   1941 1 1 Joe Gordon 478 132 21 6 20 85 71 59 65 3 1 8 7 13 .276 .359 .471 .830 79   14.9 5.4 20.3 .114 .041 .155 25.04 1941 1 1 Joe Gordon
1941 13 Jerry Priddy R   NY 1 R 21   31 74 79 5 26 .968   1941 13 Jerry Priddy 98 21 4 0 1 10 15 10 9 1 1 2 1 3 .214 .294 .286 .580 7   0.1 1.2 1.3 .003 .039 .042 0.83 1941 13 Jerry Priddy
       
1942 1 1 Joe Gordon Vet 1 A   NY 1 R 26   147 354 442 28 121 .966   1942 1 1 Joe Gordon 538 173 29 4 18 88 103 79 95 1 7 12 6 22 .322 .409 .491 .900 110   24.6 6.5 31.1 .167 .044 .212 39.92 1942 1 1 Joe Gordon
       
1943 1 1 Joe Gordon Vet T25 a   NY 1 R 27   152 407 490 29 114 .969   1943 1 1 Joe Gordon 543 135 28 5 17 82 69 98 75 2 7 4 7 18 .249 .365 .413 .778 81   19.8 8.4 28.2 .130 .055 .186 34.85 1943 1 1 Joe Gordon
       
1944 1 1 Snuffy Stirnweiss 4   NY 3 R 25   154 433 481 17 113 .982   1944 1 1 Snuffy Stirnweiss 643 205 35 16 8 125 43 73 87 1 6 55 11 6 .319 .389 .460 .849 118   26.4 8.9 35.3 .171 .058 .229 44.23 1944 1 1 Snuffy Stirnweiss
       
1945 1 1 Snuffy Stirnweiss 3 a*   NY 4 R 26   152 432 492 29 119 .970   1945 1 1 Snuffy Stirnweiss 632 195 32 22 10 107 64 78 62 1 6 33 17 9 .309 .385 .476 .861 114   26.9 6.8 33.7 .177 .045 .222 42.57 1945 1 1 Snuffy Stirnweiss
       
1946 5 5 Joe Gordon Vet a   NY 3 R 30   108 281 346 17 87 .974   1946 5 5 Joe Gordon 376 79 15 0 11 35 47 49 72 4 2 2 5 14 .210 .308 .338 .646 36   3.5 5.7 9.2 .032 .053 .085 8.22 1946 5 5 Joe Gordon
1946 7 Snuffy Stirnweiss a(3B)   NY 3 R 27 3B   46 88 141 5 30 .979   1946 7 Snuffy Stirnweiss 174 44 7 2 0 27 13 24 21 0 2 6 2 4 .253 .343 .316 .659 20   2.9 2.0 4.9 .063 .043 .107 4.89 1946 7 Snuffy Stirnweiss
       
1947 2 2 Snuffy Stirnweiss   NY 1 R 28   148 337 402 13 107 .983   1947 2 2 Snuffy Stirnweiss 571 146 18 8 5 102 41 89 47 2 11 5 3 13 .256 .358 .342 .700 78   13.9 5.8 19.7 .094 .039 .133 21.38 1947 2 2 Snuffy Stirnweiss
       
1948 4 4 Snuffy Stirnweiss   NY 3 R 29   141 346 364 5 103 .993   1948 4 4 Snuffy Stirnweiss 515 130 20 7 3 90 32 86 62 1 8 5 4 13 .252 .360 .336 .696 70   9.7 7.6 17.3 .069 .054 .123 16.81 1948 4 4 Snuffy Stirnweiss
       
1949 5 5 Jerry Coleman R-3   NY 1 R 24   122 298 315 12 102 .981   1949 5 5 Jerry Coleman 433 119 20 5 2 52 41 61 43 2 11 8 6 12 .275 .367 .358 .725 63   10.4 5.8 16.2 .085 .048 .133 16.72 1949 5 5 Jerry Coleman
1949 9 Snuffy Stirnweiss   NY 1 R 30   51 121 106 6 34 .974   1949 9 Snuffy Stirnweiss 146 38 7 2 0 27 10 27 19 1 3 3 2 2 .260 .379 .336 .715 22   3.8 1.9 5.7 .075 .037 .112 5.39 1949 9 Snuffy Stirnweiss
       
1950 3 3 Jerry Coleman a   NY 1 R 25   152 384 384 18 137 .977   1950 3 3 Jerry Coleman 502 144 18 6 6 66 66 64 37 3 10 3 2 10 .287 .371 .382 .753 79   12.3 6.2 18.5 .081 .041 .122 19.42 1950 3 3 Jerry Coleman
1950 14 Billy Martin R   NY 1 R 22   22 24 16 1 5 .976   1950 14 Billy Martin 34 9 1 0 1 10 8 3 3 0 0 0 0 0 .265 .324 .382 .706 4   0.4 0.3 0.7 .018 .014 .032 0.38 1950 14 Billy Martin
       
1951 7 6 Jerry Coleman   NY 1 R 26   102 245 268 17 84 .968   1951 7 6 Jerry Coleman 308 77 9 2 3 41 37 26 31 3 7 5 1 9 .250 .315 .321 .636 33   4.3 4.3 8.6 .042 .042 .084 7.08 1951 7 6 Jerry Coleman
1951 5 Gil McDougald 9 R-1   NY 1 R 23 3B   55 120 137 5 26 .981   1951 5 Gil McDougald 161 49 9 2 6 29 25 22 22 2 4 6 2 5 .304 .395 .497 .892 33   7.8 1.8 9.6 .142 .033 .175 11.38 1951 5 Gil McDougald
1951 14 Billy Martin R   NY 1 R 23   23 36 49 1 15 .988   1951 14 Billy Martin 42 11 1 1 0 7 1 3 6 1 1 0 1 4 .262 .326 .333 .659 4   0.2 0.7 0.9 .009 .030 .039 0.50 1951 14 Billy Martin
       
1952 5 5 Billy Martin R   NY 1 R 24   107 244 323 9 92 .984   1952 5 5 Billy Martin 363 97 13 3 3 32 33 22 31 8 8 3 6 8 .267 .323 .344 .667 39   5.6 5.1 10.7 .052 .048 .100 9.84 1952 5 5 Billy Martin
1952 10 Gil McDougald a-rep   NY 1 R 24 3B   38 109 99 5 31 .977   1952 10 Gil McDougald 136 36 4 1 3 16 19 14 18 1 4 1 1 3 .265 .338 .375 .713 16   2.8 1.9 4.7 .074 .050 .124 4.81 1952 10 Gil McDougald
       
Pos St All- Other 2nd Base Fielding Statistics Pos St Batting Statistics as Second Baseman Win Shares Pos St
Year Rank Rank Name HOF MVP Star Rookie GG SS Team Stdg Bats Age Pos Games PO Assts Err DP F Pct. Year Rank Rank Name At Bats Hits 2B 3B HR Runs RBI BB IBB SO HP SH SF SB CS GDP BA OBA SA OPS RC B WS F WS T WS BWS/G FWS/G TWS/G Adj WSQ Year Rank Rank Name
1953 5 5 Billy Martin 25   NY 1 R 25   146 376 390 12 121 .985   1953 5 5 Billy Martin 523 134 21 5 13 64 67 38 50 5 8 5 6 17 .256 .313 .390 .703 62   9.0 6.0 15.0 .062 .041 .103 14.08 1953 5 5 Billy Martin
1953 8 Gil McDougald   NY 1 R 25 3B   26 23 33 1 9 .982   1953 8 Gil McDougald 87 25 4 1 2 13 13 10 10 1 1 0 1 1 .287 .367 .425 .792 13   2.6 1.0 3.6 .100 .038 .138 3.92 1953 8 Gil McDougald
       
1954 3 3 Gil McDougald   NY 2 R 26 3B   92 224 233 5 84 .989   1954 3 3 Gil McDougald 287 80 17 2 9 54 38 54 1 38 5 8 2 0 2 4 .279 .399 .446 .845 55   11.9 4.5 16.4 .129 .049 .178 18.62 1954 3 3 Gil McDougald
1954 10 Jerry Coleman T19   NY 2 R 29 SS   79 183 198 9 62 .977   1954 10 Jerry Coleman 236 51 6 1 2 33 18 25 2 22 0 3 1 3 0 7 .216 .290 .275 .565 19   1.1 3.4 4.5 .014 .043 .057 2.89 1954 10 Jerry Coleman
       
1955 2 2 Gil McDougald 12   NY 1 R 27   126 352 348 11 119 .985   1955 2 2 Gil McDougald 453 129 8 7 11 67 43 58 2 64 1 6 4 4 5 4 .285 .364 .406 .770 71   13.6 7.4 21.0 .108 .059 .167 24.58 1955 2 2 Gil McDougald
       
1956 3 3 Billy Martin a   NY 1 R 28   105 241 260 10 84 .980   1956 3 3 Billy Martin 410 114 21 5 9 74 48 29 0 47 3 7 4 6 3 7 .278 .327 .420 .747 58   8.5 4.8 13.3 .081 .046 .127 14.47 1956 3 3 Billy Martin
1956 12 Jerry Coleman   NY 1 R 31 SS   41 89 94 4 32 .979   1956 12 Jerry Coleman 95 27 2 0 0 7 8 6 2 18 1 4 1 1 1 2 .284 .330 .305 .635 11   0.6 1.5 2.1 .015 .037 .051 1.46 1956 12 Jerry Coleman
1956 9 Gil McDougald T7 a(SS)   NY 1 R 28 SS   31 57 77 2 28 .985   1956 9 Gil McDougald 93 25 2 0 2 14 10 13 0 13 1 1 0 2 0 1 .269 .364 .355 .719 13   2.7 1.5 4.2 .087 .048 .135 4.73 1956 9 Gil McDougald
       
1957 10 7 Bobby Richardson a R   NY 1 R 21   93 206 223 9 60 .979   1957 10 7 Bobby Richardson 304 78 11 1 0 36 19 9 3 26 0 3 3 1 3 9 .257 .275 .299 .574 21   0.9 3.5 4.4 .010 .038 .047 2.75 1957 10 7 Bobby Richardson
1957 11 Jerry Coleman   NY 1 R 32 3B   45 74 84 5 32 .969   1957 11 Jerry Coleman 100 22 4 1 0 12 7 14 0 17 1 1 0 0 1 6 .220 .322 .280 .602 8   1.5 1.3 2.8 .033 .029 .062 2.01 1957 11 Jerry Coleman
1957 8 Billy Martin   NY 1 R 29 3B   26 58 67 7 18 .947   1957 8 Billy Martin 96 22 3 2 0 8 7 1 0 8 0 1 3 1 1 5 .229 .230 .302 .532 8   0.9 0.7 1.6 .035 .027 .062 1.14 1957 8 Billy Martin
1957 6 Gil McDougald 5 a(SS)   NY 1 R 29 SS   21 59 48 1 18 .991   1957 6 Gil McDougald 75 24 3 1 2 11 5 6 0 6 0 2 0 0 1 3 .320 .370 .467 .837 13   2.8 1.1 3.9 .133 .052 .186 4.83 1957 6 Gil McDougald
       
1958 4 4 Gil McDougald T20 a   NY 1 R 30   115 265 298 13 97 .977   1958 4 4 Gil McDougald 428 100 15 1 12 56 57 53 0 64 7 6 6 4 2 11 .234 .324 .357 .681 52   8.7 3.8 12.5 .076 .033 .109 12.12 1958 4 4 Gil McDougald
1958 11 Bobby Richardson   NY 1 R 22   51 104 110 6 35 .973   1958 11 Bobby Richardson 145 32 3 2 0 12 10 7 0 4 0 3 1 1 2 1 .221 .255 .269 .524 11   0.9 1.4 2.3 .018 .027 .045 1.44 1958 11 Bobby Richardson
       
1959 4 4 Bobby Richardson 18 a   NY 3 R 23   109 256 292 17 85 .970   1959 4 4 Bobby Richardson 418 130 17 6 2 47 31 22 2 17 0 9 3 5 5 3 .311 .343 .395 .738 59   10.3 3.4 13.7 .094 .031 .126 13.69 1959 4 4 Bobby Richardson
1959 12 Gil McDougald a(SS)   NY 3 R 31 3B,SS   53 119 146 3 40 .989   1959 12 Gil McDougald 194 46 11 2 1 25 9 14 0 15 3 2 0 0 2 3 .237 .299 .330 .629 19   2.4 1.9 4.3 .045 .036 .081 3.45 1959 12 Gil McDougald
       
1960 8 8 Bobby Richardson   NY 1 R 24   141 312 337 18 103 .973   1960 8 8 Bobby Richardson 437 107 12 2 1 42 25 35 6 19 0 9 3 6 6 7 .245 .299 .288 .587 41   4.3 3.7 8.0 .030 .026 .057 6.01 1960 8 8 Bobby Richardson
1960 10 Gil McDougald   NY 1 R 32 3B   42 57 99 1 16 .994   1960 10 Gil McDougald 91 19 6 1 3 11 7 16 0 13 1 2 1 1 1 1 .209 .330 .396 .726 13   2.5 1.2 3.7 .060 .029 .088 3.46 1960 10 Gil McDougald
       
1961 6 6 Bobby Richardson T34 G   NY 1 R 25   161 413 376 18 136 .978   1961 6 6 Bobby Richardson 660 173 17 5 3 80 49 30 1 22 2 10 2 9 7 15 .262 .295 .317 .612 59   5.4 6.3 11.7 .034 .039 .073 10.49 1961 6 6 Bobby Richardson
       
1962 2 2 Bobby Richardson 2 a(2) G   NY 1 R 26   161 378 452 15 116 .982   1962 2 2 Bobby Richardson 692 209 38 5 8 99 59 37 1 24 1 20 4 11 9 13 .302 .337 .406 .743 93   16.4 5.7 22.1 .102 .035 .137 24.71 1962 2 2 Bobby Richardson
       
1963 1 1 Bobby Richardson 10 a G   NY 1 R 27   150 335 424 12 105 .984   1963 1 1 Bobby Richardson 629 167 20 6 3 72 48 25 0 22 2 8 3 14 1 8 .266 .294 .331 .625 65   10.1 8.1 18.2 .067 .054 .121 19.42 1963 1 1 Bobby Richardson
       
1964 3 1 Bobby Richardson T17 A G   NY 1 R 28   157 400 410 15 108 .982   1964 3 1 Bobby Richardson 675 180 25 4 4 90 50 28 1 36 0 16 5 11 2 15 .267 .294 .333 .627 67   8.8 5.8 14.6 .056 .037 .093 14.53 1964 3 1 Bobby Richardson
       
1965 5 5 Bobby Richardson 20 a G   NY 6 R 29   158 372 403 15 121 .981   1965 5 5 Bobby Richardson 661 164 28 2 6 76 47 37 4 39 1 9 2 7 5 11 .248 .288 .324 .612 62   7.1 6.4 13.5 .045 .041 .085 12.15 1965 5 5 Bobby Richardson
       
1966 4 4 Bobby Richardson a   NY 10 R 30   147 322 408 15 91 .980   1966 4 4 Bobby Richardson 605 153 21 3 7 70 41 25 1 27 1 9 3 6 6 17 .253 .282 .332 .614 52   5.2 4.7 9.9 .035 .032 .067 8.87 1966 4 4 Bobby Richardson
       
1967 1 1 Horace Clarke   NY 9 B 27   140 348 410 8 79 .990   1967 1 1 Horace Clarke 586 158 17 0 3 74 29 42 2 64 0 3 0 21 4 5 .270 .318 .314 .632 64   14.0 8.1 22.1 .100 .058 .158 25.93 1967 1 1 Horace Clarke
1967 11 Dick Howser   NY 9 R 31   22 55 46 1 15 .990   1967 11 Dick Howser 87 23 4 0 0 12 5 11 0 7 0 2 0 1 2 0 .264 .347 .310 .657 11   2.7 0.8 3.5 .123 .036 .159 4.12 1967 11 Dick Howser
       
1968 7 7 Horace Clarke   NY 5 B 28   139 357 444 13 80 .984   1968 7 7 Horace Clarke 573 131 6 1 2 52 26 22 0 46 0 3 2 20 7 8 .229 .256 .253 .509 37   3.0 8.3 11.3 .022 .060 .081 9.62 1968 7 7 Horace Clarke
1968 17 Dick Howser   NY 5 R 32   29 58 103 3 19 .982   1968 17 Dick Howser 104 15 2 1 0 17 3 21 0 12 2 2 0 0 1 3 .144 .299 .183 .482 7   0.8 1.6 2.4 .028 .055 .083 2.07 1968 17 Dick Howser
       
1969 3 3 Horace Clarke   NY 5E B 29   156 373 429 15 112 .982   1969 3 3 Horace Clarke 641 183 26 7 4 82 48 53 1 41 0 3 2 33 13 8 .285 .339 .367 .706 82   15.6 7.0 22.6 .100 .045 .145 24.27 1969 3 3 Horace Clarke
       
Pos St All- Other 2nd Base Fielding Statistics Pos St Batting Statistics as Second Baseman Win Shares Pos St
Year Rank Rank Name HOF MVP Star Rookie GG SS Team Stdg Bats Age Pos Games PO Assts Err DP F Pct. Year Rank Rank Name At Bats Hits 2B 3B HR Runs RBI BB IBB SO HP SH SF SB CS GDP BA OBA SA OPS RC B WS F WS T WS BWS/G FWS/G TWS/G Adj WSQ Year Rank Rank Name
1970 6 5 Horace Clarke   NY 2E B 30   157 379 478 18 95 .979   1970 6 5 Horace Clarke 685 172 24 2 4 81 46 35 5 35 2 2 7 22 7 12 .251 .287 .309 .596 61   7.9 5.7 13.6 .050 .036 .087 12.55 1970 6 5 Horace Clarke
       
1971 6 6 Horace Clarke   NY 4E B 31   156 386 455 16 97 .981   1971 6 6 Horace Clarke 621 155 23 7 2 75 41 64 2 42 2 4 1 17 7 14 .250 .321 .319 .640 66   11.1 4.9 16.0 .071 .031 .103 15.18 1971 6 6 Horace Clarke
       
1972 2 2 Horace Clarke   NY 4E B 32   143 347 399 11 104 .985   1972 2 2 Horace Clarke 542 131 19 2 3 65 36 54 3 44 4 3 3 18 5 7 .242 .313 .301 .614 53   10.9 6.1 17.0 .076 .043 .119 18.11 1972 2 2 Horace Clarke
1972 13 Bernie Allen   NY 4E L 33 3B   20 50 47 2 17 .980   1972 13 Bernie Allen 72 19 1 0 4 9 5 4 0 13 0 0 0 0 0 2 .264 .303 .444 .747 9   2.1 0.5 2.6 .105 .025 .130 2.90 1972 13 Bernie Allen
       
1973 7 7 Horace Clarke   NY 4E B 33   147 378 442 18 107 .979   1973 7 7 Horace Clarke 588 154 21 0 2 60 35 47 0 48 2 6 5 11 10 18 .262 .316 .308 .624 54   5.1 6.6 11.7 .035 .045 .080 9.87 1973 7 7 Horace Clarke
       
1974 12 11 Sandy Alomar   NY 2E B 30   76 184 192 9 45 .977   1974 12 11 Sandy Alomar 279 75 8 0 1 35 27 14 0 25 0 4 2 6 4 6 .269 .302 .308 .610 27   3.1 2.3 5.4 .041 .030 .071 3.97 1974 12 11 Sandy Alomar
1974 16 Gene Michael   NY 2E B 36 SS   45 86 106 6 29 .970   1974 16 Gene Michael 119 25 5 0 0 10 12 11 0 13 0 1 1 0 0 4 .210 .275 .252 .527 8   1.1 1.1 2.2 .024 .024 .049 1.41 1974 16 Gene Michael
1974 23 Fernando Gonzalez R   NY 2E R 24   42 86 82 3 22 .982   1974 23 Fernando Gonzalez 99 23 5 1 1 9 7 7 0 5 0 2 0 0 0 2 .232 .283 .333 .616 8   0.2 1.1 1.3 .005 .026 .031 0.66 1974 23 Fernando Gonzalez
1974 26 Horace Clarke   NY 2E B 34 NL-2B   20 27 27 0 5 1.000   1974 26 Horace Clarke 38 11 1 0 0 2 1 2 0 1 0 1 0 1 0 0 .289 .325 .316 .641 4   0.4 0.3 0.7 .020 .015 .035 0.38 1974 26 Horace Clarke
       
1975 10 9 Sandy Alomar   NY 3E B 31   150 340 368 11 93 .985   1975 10 9 Sandy Alomar 488 117 18 4 2 59 39 26 0 58 0 11 2 28 6 6 .240 .277 .305 .582 45   3.6 5.9 9.5 .024 .039 .063 6.83 1975 10 9 Sandy Alomar
1975 24 Fred Stanley   NY 3E R 27 SS   33 54 54 2 17 .982   1975 24 Fred Stanley 56 12 3 0 0 9 5 4 0 9 0 1 0 0 0 0 .214 .267 .268 .535 5   - 0.9 0.9 .000 .027 .027 0.42 1975 24 Fred Stanley
       
1976 3 3 Willie Randolph a-inj R   NY 1E R 21   124 307 415 19 87 .974   1976 3 3 Willie Randolph 429 115 15 4 1 59 40 57 5 39 3 6 3 35 12 10 .268 .356 .329 .685 56   10.9 5.7 16.6 .088 .046 .134 18.58 1976 3 3 Willie Randolph
1976 18 Sandy Alomar   NY 1E B 32   38 85 108 6 17 .970   1976 18 Sandy Alomar 124 31 3 0 1 10 7 7 0 11 0 2 0 6 3 1 .250 .290 .298 .588 12   1.2 1.1 2.3 .032 .029 .061 1.73 1976 18 Sandy Alomar
       
1977 2 2 Willie Randolph A   NY 1E R 22   147 350 454 16 108 .980   1977 2 2 Willie Randolph 551 151 28 11 4 91 40 64 1 53 1 2 6 13 6 11 .274 .347 .387 .734 75   13.0 7.1 20.1 .088 .048 .137 23.75 1977 2 2 Willie Randolph
1977 13 George Zeber R   NY 1E B 26   21 42 56 4 11 .961   1977 13 George Zeber 60 21 3 0 3 9 10 9 1 10 0 1 0 0 0 1 .350 .435 .550 .985 13   3.0 0.7 3.7 .143 .033 .176 4.97 1977 13 George Zeber
       
1978 1 1 Willie Randolph T29   NY 1E R 23   134 296 400 16 80 .978   1978 1 1 Willie Randolph 499 139 18 6 3 87 42 81 1 51 4 6 5 36 7 12 .279 .380 .357 .737 78   17.1 5.9 23.0 .128 .044 .172 29.16 1978 1 1 Willie Randolph
1978 24 Brian Doyle R   NY 1E L 23   29 36 51 1 12 .989   1978 24 Brian Doyle 40 8 0 0 0 2 0 0 0 3 0 2 0 0 3 2 .200 .200 .200 .400 0   - 0.7 0.7 .000 .024 .024 0.33 1978 24 Brian Doyle
       
1979 3 3 Willie Randolph   NY 4E R 24   153 355 478 13 128 .985   1979 3 3 Willie Randolph 574 155 15 13 5 98 61 94 5 39 3 5 5 33 12 23 .270 .373 .368 .741 83   14.8 7.8 22.6 .097 .051 .148 24.72 1979 3 3 Willie Randolph
       
1980 1 1 Willie Randolph T15 A S NY 1E R 25   138 361 401 19 97 .976   1980 1 1 Willie Randolph 513 151 23 7 7 99 46 119 4 45 2 5 3 30 5 6 .294 .427 .407 .834 105   25.3 5.2 30.5 .183 .038 .221 42.21 1980 1 1 Willie Randolph
1980 31 Brian Doyle R NY 1E L 25   20 28 33 3 5 .953   1980 31 Brian Doyle 37 4 0 0 0 4 1 4 0 3 0 0 0 0 0 1 .108 .195 .108 .303 1   - 0.6 0.6 .000 .030 .030 0.31 1980 31 Brian Doyle
     
1981 8 8 Willie Randolph A NY 3E R 26   93 205 268 11 74 .977   1981 8 8 Willie Randolph 357 83 14 3 2 59 24 57 0 24 0 5 3 14 5 10 .232 .336 .305 .641 39   5.3 4.1 9.4 .057 .044 .101 8.65 1981 8 8 Willie Randolph
     
1982 5 5 Willie Randolph NY 5E R 27   142 352 380 14 100 .981   1982 5 5 Willie Randolph 549 154 21 4 3 84 36 74 3 35 3 10 2 16 9 13 .281 .368 .350 .718 75   12.4 6.4 18.8 .087 .045 .132 20.69 1982 5 5 Willie Randolph
     
1983 5 5 Willie Randolph NY 3E R 28   104 265 298 12 77 .979   1983 5 5 Willie Randolph 420 117 21 1 2 73 38 53 0 32 1 3 0 12 4 11 .279 .361 .348 .709 55   9.7 5.4 15.1 .093 .052 .145 16.86 1983 5 5 Willie Randolph
1983 22 Andre Robertson NY 3E R 25 SS   29 72 60 1 15 .992   1983 22 Andre Robertson 98 21 5 0 0 8 9 3 0 12 0 2 1 2 2 2 .214 .235 .265 .500 6   0.3 1.4 1.7 .010 .048 .059 1.21 1983 22 Andre Robertson
1983 23 Bert Campaneris NY 3E R 41 3B   32 40 67 4 18 .964   1983 23 Bert Campaneris 75 17 4 0 0 6 2 3 0 6 0 2 1 3 5 2 .227 .253 .280 .533 5   0.7 0.8 1.5 .022 .025 .047 0.95 1983 23 Bert Campaneris
     
1984 2 2 Willie Randolph NY 3E R 29   142 334 419 13 112 .983   1984 2 2 Willie Randolph 564 162 24 2 2 86 31 86 4 42 0 7 7 10 6 15 .287 .377 .348 .725 78   14.3 7.1 21.4 .101 .050 .151 25.22 1984 2 2 Willie Randolph
1984 26 Tim Foli NY 3E R 33 SS   21 39 43 0 12 1.000   1984 26 Tim Foli 56 14 4 0 0 4 8 1 0 8 0 1 0 0 0 1 .250 .263 .321 .584 5   0.2 0.7 0.9 .010 .033 .043 0.57 1984 26 Tim Foli
     
1985 2 2 Willie Randolph NY 2E R 30   143 303 425 11 104 .985   1985 2 2 Willie Randolph 497 137 21 2 5 75 40 85 3 39 4 5 6 16 9 24 .276 .382 .356 .738 69   11.5 7.9 19.4 .080 .055 .136 22.23 1985 2 2 Willie Randolph
     
1986 5 5 Willie Randolph NY 2E R 31   139 313 381 20 94 .972   1986 5 5 Willie Randolph 490 135 15 1 5 75 49 94 0 49 3 8 4 15 2 11 .276 .393 .341 .734 75   13.0 4.6 17.6 .094 .033 .127 19.21 1986 5 5 Willie Randolph
1986 28 Mike Fischlin NY 2E R 30 SS   27 30 34 2 5 .970   1986 28 Mike Fischlin 39 9 0 0 0 3 1 1 0 7 0 2 1 0 0 1 .231 .244 .231 .475 3   - 0.6 0.6 .000 .022 .022 0.28 1986 28 Mike Fischlin
     
Pos St All- Other 2nd Base Fielding Statistics Pos St Batting Statistics as Second Baseman Win Shares Pos St
Year Rank Rank Name HOF MVP Star Rookie GG SS Team Stdg Bats Age Pos Games PO Assts Err DP F Pct. Year Rank Rank Name At Bats Hits 2B 3B HR Runs RBI BB IBB SO HP SH SF SB CS GDP BA OBA SA OPS RC B WS F WS T WS BWS/G FWS/G TWS/G Adj WSQ Year Rank Rank Name
1987 1 1 Willie Randolph A NY 4E R 32   119 286 338 12 89 .981   1987 1 1 Willie Randolph 444 133 23 2 7 93 67 80 1 25 2 5 5 11 1 14 .300 .405 .408 .813 81   16.1 5.2 21.3 .135 .044 .179 29.30 1987 1 1 Willie Randolph
1987 18 Bobby Meacham NY 4E B 26 SS   25 40 57 2 11 .980   1987 18 Bobby Meacham 60 17 2 1 2 7 5 8 0 10 3 1 0 2 2 1 .283 .394 .450 .844 10   1.5 0.7 2.2 .060 .028 .088 2.12 1987 18 Bobby Meacham
1987 25 Juan Bonilla NY 4E R 31   22 40 43 3 10 .965   1987 25 Juan Bonilla 53 12 3 0 1 6 3 5 0 6 0 3 0 0 0 2 .226 .293 .340 .633 6   0.5 0.7 1.2 .023 .032 .055 0.91 1987 25 Juan Bonilla
     
1988 7 7 Willie Randolph NY 5E R 33   110 254 339 7 83 .988   1988 7 7 Willie Randolph 404 93 20 1 2 43 34 55 2 39 2 8 5 8 4 10 .230 .322 .300 .622 44   6.4 5.8 12.2 .058 .053 .111 13.04 1988 7 7 Willie Randolph
1988 24 Randy Velarde R NY 5E R 25   24 54 65 4 24 .967   1988 24 Randy Velarde 70 12 3 0 3 9 5 4 0 14 1 0 0 1 1 1 .171 .227 .343 .570 5   0.3 0.7 1.0 .013 .029 .042 0.66 1988 24 Randy Velarde
1988 25 Bobby Meacham NY 5E B 27 SS   21 39 44 2 8 .976   1988 25 Bobby Meacham 64 17 5 0 0 14 6 7 0 16 2 0 2 5 1 0 .266 .347 .344 .691 8   0.4 0.4 0.8 .019 .019 .038 0.50 1988 25 Bobby Meacham
     
1989 3 3 Steve Sax T21 a NY 5E R 29   158 312 460 10 117 .987   1989 3 3 Steve Sax 651 205 26 3 5 88 63 52 2 44 1 8 5 43 17 19 .315 .364 .387 .751 87   16.3 4.9 21.2 .103 .031 .134 22.51 1989 3 3 Steve Sax
     
1990 8 7 Steve Sax A NY 7E R 30   154 292 457 10 102 .987   1990 8 7 Steve Sax 615 160 24 2 4 70 42 49 3 46 4 6 6 43 9 13 .260 .316 .325 .641 67   9.0 4.9 13.9 .058 .032 .090 12.58 1990 8 7 Steve Sax
     
1991 4 4 Steve Sax NY 5E R 31   149 274 443 7 107 .990   1991 4 4 Steve Sax 612 186 34 2 10 80 52 39 1 35 3 5 5 31 11 14 .304 .346 .415 .761 88   16.1 6.5 22.6 .108 .044 .152 24.63 1991 4 4 Steve Sax
     
1992 14 12 Pat F. Kelly NY T4E R 24   101 203 296 11 64 .978   1992 14 12 Pat F. Kelly 315 71 22 2 7 38 27 25 1 71 10 6 3 8 5 6 .225 .300 .375 .675 33   3.5 3.1 6.6 .035 .031 .065 4.82 1992 14 12 Pat F. Kelly
1992 19 Mike Gallego NY T4E R 31   40 86 112 2 31 .990   1992 19 Mike Gallego 117 31 4 1 2 12 7 13 0 18 3 2 1 0 1 2 .265 .351 .368 .719 15   2.0 1.3 3.3 .050 .033 .083 2.70 1992 19 Mike Gallego
1992 17 Andy Stankiewicz R NY T4E R 27 SS   34 52 89 1 20 .993   1992 17 Andy Stankiewicz 92 29 7 0 1 13 7 10 0 7 1 2 0 4 0 3 .315 .388 .424 .812 16   2.3 1.2 3.5 .068 .035 .103 3.21 1992 17 Andy Stankiewicz
     
1993 12 11 Pat F. Kelly NY 2E R 25   125 245 369 14 84 .978   1993 12 11 Pat F. Kelly 404 111 24 1 7 49 51 24 0 67 5 10 6 14 10 9 .275 .319 .391 .710 47   5.6 4.4 10.0 .045 .035 .080 8.05 1993 12 11 Pat F. Kelly
1993 16 Mike Gallego NY 2E R 32 3B,SS   52 83 143 5 36 .978   1993 16 Mike Gallego 145 34 8 0 4 27 18 19 0 31 1 1 1 0 0 6 .234 .325 .372 .697 17   2.6 1.8 4.4 .050 .035 .085 3.64 1993 16 Mike Gallego
     
1994 10 9 Pat F. Kelly NY 1E R 26   93 180 258 10 70 .978   1994 10 9 Pat F. Kelly 285 80 21 2 3 35 41 19 1 51 5 14 5 6 5 10 .281 .331 .400 .731 33   2.8 3.4 6.2 .030 .037 .067 4.96 1994 10 9 Pat F. Kelly
1994 22 Mike Gallego NY 1E R 33 SS   26 35 66 0 16 1.000   1994 22 Mike Gallego 69 19 5 0 0 11 9 6 0 8 1 1 3 0 1 1 .275 .329 .348 .677 8   0.6 1.0 1.6 .023 .038 .062 1.23 1994 22 Mike Gallego
     
1995 16 12 Pat F. Kelly NY 2E R 27   87 161 256 7 54 .983   1995 16 12 Pat F. Kelly 267 64 12 1 4 32 29 23 0 63 5 10 2 8 2 5 .240 .310 .337 .647 24   1.0 3.8 4.8 .011 .044 .055 3.45 1995 16 12 Pat F. Kelly
1995 10 Randy Velarde NY 2E R 32 SS,LF   62 102 140 6 25 .976   1995 10 Randy Velarde 172 50 9 0 3 31 21 32 0 34 2 2 2 3 0 4 .291 .404 .395 .799 31   4.8 2.2 7.0 .077 .035 .113 7.20 1995 10 Randy Velarde
     
1996 8 8 Mariano Duncan 12 NY 1E B 33   104 183 238 11 57 .975   1996 8 8 Mariano Duncan 369 118 30 3 6 56 48 9 1 74 1 2 5 4 3 10 .320 .333 .466 .799 54   8.1 3.0 11.1 .078 .029 .107 10.41 1996 8 8 Mariano Duncan
1996 25 Andy Fox R NY 1E L 25 3B   72 78 104 8 21 .958   1996 25 Andy Fox 120 23 2 0 2 11 6 14 0 20 0 6 0 9 2 1 .192 .276 .258 .534 12   - 1.4 1.4 .000 .019 .019 0.56 1996 25 Andy Fox
1996 29 Matt Howard R NY 1E R 28   30 14 27 1 5 .976   1996 29 Matt Howard 42 10 1 0 1 7 9 1 0 4 0 1 1 1 0 2 .238 .250 .333 .583 4   - - - .000 .000 .000 - 1996 29 Matt Howard
     
1997 15 12 Luis Sojo NY 2E R 31   72 121 147 5 35 .982   1997 15 12 Luis Sojo 202 62 6 1 1 26 24 16 0 12 1 5 2 3 1 5 .307 .357 .361 .718 28   4.0 2.6 6.6 .056 .036 .092 6.00 1997 15 12 Luis Sojo
1997 25 Pat F. Kelly NY 2E R 29   48 63 92 3 26 .981   1997 25 Pat F. Kelly 115 27 5 1 2 18 10 14 1 36 1 2 1 3 1 3 .235 .321 .348 .669 10   0.3 1.6 1.9 .006 .033 .040 1.13 1997 25 Pat F. Kelly
1997 21 Mariano Duncan NY 2E B 34   41 65 99 4 20 .976   1997 21 Mariano Duncan 144 37 7 0 1 15 11 5 0 30 0 1 0 2 1 2 .257 .282 .326 .608 12   0.4 1.7 2.1 .010 .041 .051 1.42 1997 21 Mariano Duncan
1997 24 Rey Sanchez NY 2E R 29 NL-2B,SS   37 63 101 4 21 .976   1997 24 Rey Sanchez 129 41 12 0 1 19 14 5 0 21 1 5 1 0 4 1 .318 .346 .434 .780 20   1.7 0.8 2.5 .046 .022 .068 1.95 1997 24 Rey Sanchez
     
1998 3 3 Chuck Knoblauch NY 1E R 29   149 275 408 13 86 .981   1998 3 3 Chuck Knoblauch 600 160 25 4 17 117 64 74 1 69 18 2 7 31 11 13 .267 .361 .407 .768 84   14.4 7.5 21.9 .097 .050 .147 24.51 1998 3 3 Chuck Knoblauch
1998 19 Homer Bush R NY 1E R 25   24 37 29 2 4 .971   1998 19 Homer Bush 54 24 3 0 1 9 4 3 0 12 0 2 0 3 0 0 .444 .474 .556 1.030 13   1.9 0.7 2.6 .079 .029 .108 2.50 1998 19 Homer Bush
     
1999 2 2 Chuck Knoblauch NY 1E R 30   150 254 425 26 67 .963   1999 2 2 Chuck Knoblauch 603 176 36 4 18 120 68 83 0 57 21 3 5 28 9 7 .292 .393 .454 .847 103   20.8 4.0 24.8 .139 .027 .165 28.90 1999 2 2 Chuck Knoblauch
     
2000 10 10 Chuck Knoblauch NY 1E R 31 DH   82 150 190 15 43 .958   2000 10 10 Chuck Knoblauch 328 89 19 2 5 51 20 31 0 34 4 1 1 10 6 4 .271 .341 .387 .728 43   6.0 2.2 8.2 .073 .027 .100 8.27 2000 10 10 Chuck Knoblauch
2000 32 Jose Vizcaino NY 1E B 32   62 83 120 2 28 .990   2000 32 Jose Vizcaino 157 43 8 1 0 19 8 9 0 24 0 3 2 4 5 1 .274 .310 .338 .648 17   - 1.5 1.5 .000 .024 .024 0.75 2000 32 Jose Vizcaino
2000 24 Luis Sojo NY 1E R 35 NL-3B   25 33 59 1 7 .989   2000 24 Luis Sojo 85 29 7 0 2 14 14 3 0 3 0 2 0 1 0 4 .341 .364 .494 .858 15   1.6 0.6 2.2 .064 .024 .088 2.09 2000 24 Luis Sojo
2000 31 Clay Bellinger R NY 1E R 31 CF   21 19 49 0 5 1.000   2000 31 Clay Bellinger 41 10 2 0 3 9 5 4 1 7 1 1 0 2 0 0 .244 .326 .512 .838 8   0.6 0.5 1.1 .029 .024 .052 0.80 2000 31 Clay Bellinger
     
Pos St All- Other 2nd Base Fielding Statistics Pos St Batting Statistics as Second Baseman Win Shares Pos St
Year Rank Rank Name HOF MVP Star Rookie GG SS Team Stdg Bats Age Pos Games PO Assts Err DP F Pct. Year Rank Rank Name At Bats Hits 2B 3B HR Runs RBI BB IBB SO HP SH SF SB CS GDP BA OBA SA OPS RC B WS F WS T WS BWS/G FWS/G TWS/G Adj WSQ Year Rank Rank Name
2001 5 5 Alfonso Soriano R-3 NY 1E R 23   156 319 366 19 93 .973   2001 5 5 Alfonso Soriano 569 152 33 3 18 76 73 29 0 123 3 3 5 41 14 7 .267 .304 .431 .735 75   9.8 6.4 16.2 .063 .041 .104 14.58 2001 5 5 Alfonso Soriano
     
2002 1 1 Alfonso Soriano 3 A S NY 1E R 24   155 300 402 23 86 .968   2002 1 1 Alfonso Soriano 694 207 51 2 39 128 101 23 1 157 14 1 7 40 12 8 .298 .331 .546 .877 118   23.0 5.7 28.7 .148 .037 .185 37.04 2002 1 1 Alfonso Soriano
     
2003 2 2 Alfonso Soriano 20 A NY 1E R 25   155 292 445 19 88 .975   2003 2 2 Alfonso Soriano 682 198 36 5 38 114 91 38 7 130 12 0 2 35 8 8 .290 .338 .525 .863 116   19.8 6.7 26.5 .128 .043 .171 32.39 2003 2 2 Alfonso Soriano
     
2004 6 6 Miguel Cairo NY 1E R 30   113 195 275 6 59 .987   2004 6 6 Miguel Cairo 322 98 17 4 6 45 38 18 1 43 14 11 4 11 3 6 .304 .363 .438 .801 49   7.1 5.8 12.9 .063 .051 .114 13.88 2004 6 6 Miguel Cairo
2004 16 Enrique Wilson NY 1E B 30   80 124 179 7 23 .977   2004 16 Enrique Wilson 216 49 8 0 5 16 29 14 0 17 0 2 5 1 2 4 .227 .268 .333 .601 20   1.8 3.5 5.3 .023 .044 .066 4.34 2004 16 Enrique Wilson
     
2005 9 9 Robinson Cano R-2 NY T1E L 22   131 258 391 17 77 .974   2005 9 9 Robinson Cano 520 154 34 4 13 77 60 16 1 68 3 7 3 1 3 16 .296 .319 .452 .771 71   7.7 5.0 12.7 .059 .038 .097 11.43 2005 9 9 Robinson Cano
2005 27 Tony Womack NY T1E L 35 LF,CF   24 42 89 1 22 .992   2005 27 Tony Womack 87 25 4 0 0 7 4 4 0 15 1 3 0 2 2 2 .287 .326 .333 .659 10   0.3 1.3 1.6 .013 .054 .067 1.19 2005 27 Tony Womack
     
2006 2 2 Robinson Cano T22 a-inj S NY 1E L 23   118 230 333 9 73 .984   2006 2 2 Robinson Cano 463 157 40 1 13 58 74 18 3 50 2 1 5 5 2 18 .339 .363 .514 .877 79   12.0 5.4 17.4 .102 .046 .147 20.42 2006 2 2 Robinson Cano
2006 17 Miguel Cairo NY 1E R 32   45 79 116 2 28 .990   2006 17 Miguel Cairo 130 35 7 3 0 18 22 6 0 15 0 3 3 7 0 3 .269 .295 .369 .664 16   2.0 2.1 4.1 .044 .047 .091 3.78 2006 17 Miguel Cairo
     
2007 3 3 Robinson Cano NY 2E L 24   159 320 497 13 136 .984   2007 3 3 Robinson Cano 614 187 41 7 19 93 97 39 5 85 8 1 4 4 5 19 .305 .352 .487 .839 96   13.6 8.1 21.7 .086 .051 .136 23.05 2007 3 3 Robinson Cano
     
2008 10 10 Robinson Cano NY 3E L 25   159 305 482 13 103 .984   2008 10 10 Robinson Cano 594 160 35 3 13 69 70 26 3 64 5 1 5 2 4 18 .269 .303 .404 .707 66   6.1 6.5 12.6 .038 .041 .079 9.98 2008 10 10 Robinson Cano
     
2009 6 6 Robinson Cano T17 NY 1E L 26   161 308 424 12 96 .984   2009 6 6 Robinson Cano 635 203 48 2 25 104 85 30 2 63 3 0 4 5 7 22 .320 .351 .520 .871 106   12.1 6.6 18.7 .075 .041 .116 17.79 2009 6 6 Robinson Cano
     
2010 1 1 Robinson Cano 3 A G S NY 2E L 27   158 341 432 3 114 .996   2010 1 1 Robinson Cano 616 198 41 3 29 102 108 56 14 76 8 0 5 3 2 18 .321 .382 .539 .921 123   24.3 9.3 33.6 .154 .059 .213 45.36 2010 1 1 Robinson Cano
Copyright 2009-11 by Andre Lower
Sources:
All-Time Major League Handbook
Win Shares Digital Update
baseball-reference.com
ESPN Baseball Encyclopedia